Time;durP1;ratioP1;P1;durP2;ratioP2;P2;SDS_P1;SDS_P2;PMS_P1;PMS_P2;Temp;Humidity;BMP_temperature;BMP_pressure;BME280_temperature;BME280_humidity;BME280_pressure;Samples;Min_cycle;Max_cycle;Signal;HPM_P1;HPM_P2
2022/05/31 00:00:07;;;;;;;1.80;1.70;;;;;;;;;;4990344;28;20205;-49
2022/05/31 00:02:33;;;;;;;2.53;1.90;;;;;;;;;;4992231;28;20241;-50
2022/05/31 00:04:59;;;;;;;2.70;2.20;;;;;;;;;;4992347;28;20222;-50
2022/05/31 00:07:25;;;;;;;2.30;2.10;;;;;;;;;;4991988;28;20209;-51
2022/05/31 00:09:51;;;;;;;2.30;2.10;;;;;;;;;;4991984;28;20202;-52
2022/05/31 00:12:17;;;;;;;4.83;2.07;;;;;;;;;;4992328;28;20268;-51
2022/05/31 00:14:44;;;;;;;2.30;2.00;;;;;;;;;;4991633;28;20207;-50
2022/05/31 00:17:11;;;;;;;2.93;2.00;;;;;;;;;;4992036;28;20591;-51
2022/05/31 00:19:37;;;;;;;2.30;2.10;;;;;;;;;;4992005;28;20392;-50
2022/05/31 00:22:06;;;;;;;2.30;2.10;;;;;;;;;;4992033;28;20202;-50
2022/05/31 00:24:32;;;;;;;2.30;2.10;;;;;;;;;;4992018;28;20213;-49
2022/05/31 00:26:58;;;;;;;2.30;2.10;;;;;;;;;;4991916;28;20766;-49
2022/05/31 00:29:24;;;;;;;2.67;2.20;;;;;;;;;;4991654;28;20230;-50
2022/05/31 00:31:52;;;;;;;2.73;2.20;;;;;;;;;;4991741;28;20234;-50
2022/05/31 00:34:18;;;;;;;3.57;2.33;;;;;;;;;;4991998;28;20202;-51
2022/05/31 00:36:45;;;;;;;2.50;2.30;;;;;;;;;;4991756;28;20206;-49
2022/05/31 00:39:11;;;;;;;2.73;2.40;;;;;;;;;;4991925;28;20213;-51
2022/05/31 00:41:39;;;;;;;3.30;2.33;;;;;;;;;;4991771;28;20206;-51
2022/05/31 00:44:06;;;;;;;2.60;2.40;;;;;;;;;;4992012;28;20603;-50
2022/05/31 00:46:38;;;;;;;3.00;2.33;;;;;;;;;;4991975;28;20209;-51
2022/05/31 00:49:06;;;;;;;2.60;2.40;;;;;;;;;;4995155;28;20206;-48
2022/05/31 00:51:36;;;;;;;3.20;2.30;;;;;;;;;;4995229;28;20249;-49
2022/05/31 00:54:04;;;;;;;4.00;2.27;;;;;;;;;;4995312;28;20194;-49
2022/05/31 00:56:30;;;;;;;3.03;2.57;;;;;;;;;;4995275;28;20252;-49
2022/05/31 00:58:59;;;;;;;2.60;2.40;;;;;;;;;;4995064;28;20711;-49
2022/05/31 01:01:25;;;;;;;2.90;2.40;;;;;;;;;;4995116;28;20361;-49
2022/05/31 01:03:51;;;;;;;3.80;2.40;;;;;;;;;;4994858;28;20251;-50
2022/05/31 01:06:19;;;;;;;2.60;2.40;;;;;;;;;;4995043;28;20202;-49
2022/05/31 01:08:45;;;;;;;3.33;2.70;;;;;;;;;;4994990;28;20207;-50
2022/05/31 01:11:13;;;;;;;6.00;2.53;;;;;;;;;;4994977;28;20233;-51
2022/05/31 01:13:39;;;;;;;3.03;2.47;;;;;;;;;;4994881;28;20744;-50
2022/05/31 01:16:06;;;;;;;3.13;2.50;;;;;;;;;;4994818;28;20205;-52
2022/05/31 01:18:33;;;;;;;3.17;2.60;;;;;;;;;;4994965;28;20248;-51
2022/05/31 01:21:00;;;;;;;2.27;2.07;;;;;;;;;;4994727;28;20264;-51
2022/05/31 01:23:27;;;;;;;2.40;2.20;;;;;;;;;;4994882;28;20225;-50
2022/05/31 01:26:05;;;;;;;2.90;2.67;;;;;;;;;;4994615;28;20581;-50
2022/05/31 01:28:36;;;;;;;2.60;2.40;;;;;;;;;;4994693;28;20249;-49
2022/05/31 01:31:05;;;;;;;3.10;2.27;;;;;;;;;;4994637;28;20221;-49
2022/05/31 01:33:34;;;;;;;3.07;2.67;;;;;;;;;;4994570;28;20202;-48
2022/05/31 01:36:05;;;;;;;3.43;2.40;;;;;;;;;;4994467;28;20256;-48
2022/05/31 01:38:38;;;;;;;3.50;2.37;;;;;;;;;;4994561;28;20672;-49
2022/05/31 01:41:09;;;;;;;5.17;2.60;;;;;;;;;;4994605;28;20206;-48
2022/05/31 01:43:36;;;;;;;2.50;2.30;;;;;;;;;;4994465;28;20202;-48
2022/05/31 01:46:05;;;;;;;2.50;2.10;;;;;;;;;;4994397;28;20213;-48
2022/05/31 01:48:32;;;;;;;2.40;2.20;;;;;;;;;;4994380;28;20198;-49
2022/05/31 01:50:58;;;;;;;3.07;2.10;;;;;;;;;;4993992;28;20226;-50
2022/05/31 01:53:25;;;;;;;2.47;2.27;;;;;;;;;;4994167;28;20686;-49
2022/05/31 01:55:52;;;;;;;2.50;2.20;;;;;;;;;;4993959;28;20206;-49
2022/05/31 01:58:20;;;;;;;2.90;2.50;;;;;;;;;;4993850;28;20198;-50
2022/05/31 02:00:46;;;;;;;2.30;2.10;;;;;;;;;;4994091;28;20194;-50
2022/05/31 02:03:13;;;;;;;2.87;2.20;;;;;;;;;;4994007;28;20554;-49
2022/05/31 02:05:43;;;;;;;3.13;2.70;;;;;;;;;;4993801;28;20194;-49
2022/05/31 02:08:10;;;;;;;3.27;2.37;;;;;;;;;;4993926;28;20242;-50
2022/05/31 02:10:39;;;;;;;2.40;2.20;;;;;;;;;;4993814;28;20222;-48
2022/05/31 02:13:05;;;;;;;2.90;2.23;;;;;;;;;;4993701;28;20210;-50
2022/05/31 02:15:32;;;;;;;3.20;2.50;;;;;;;;;;4993885;28;20692;-49
2022/05/31 02:17:57;;;;;;;2.30;2.10;;;;;;;;;;4993531;28;20684;-51
2022/05/31 02:20:23;;;;;;;2.60;2.40;;;;;;;;;;4993704;28;20201;-50
2022/05/31 02:22:49;;;;;;;2.43;2.23;;;;;;;;;;4993480;28;20202;-51
2022/05/31 02:25:16;;;;;;;2.70;2.50;;;;;;;;;;4993693;28;20288;-51
2022/05/31 02:27:43;;;;;;;3.40;2.50;;;;;;;;;;4993260;28;20620;-51
2022/05/31 02:30:10;;;;;;;2.47;2.27;;;;;;;;;;4993431;28;20206;-52
2022/05/31 02:32:36;;;;;;;2.43;2.23;;;;;;;;;;4993385;28;20665;-51
2022/05/31 02:35:03;;;;;;;2.80;2.60;;;;;;;;;;4993306;28;20213;-50
2022/05/31 02:37:29;;;;;;;2.50;2.30;;;;;;;;;;4993416;28;20201;-50
2022/05/31 02:39:55;;;;;;;3.70;2.20;;;;;;;;;;4993476;28;20229;-51
2022/05/31 02:42:22;;;;;;;2.57;2.37;;;;;;;;;;4993278;28;20642;-50
2022/05/31 02:44:51;;;;;;;3.37;2.70;;;;;;;;;;4993238;28;20209;-50
2022/05/31 02:47:17;;;;;;;3.07;2.33;;;;;;;;;;4993155;28;20669;-51
2022/05/31 02:49:44;;;;;;;2.93;2.63;;;;;;;;;;4993101;28;20198;-51
2022/05/31 02:52:10;;;;;;;2.83;2.50;;;;;;;;;;4992954;28;20265;-51
2022/05/31 02:54:36;;;;;;;2.90;2.30;;;;;;;;;;4992968;28;20253;-51
2022/05/31 02:57:02;;;;;;;3.23;2.40;;;;;;;;;;4993064;28;20217;-50
2022/05/31 02:59:28;;;;;;;5.80;2.50;;;;;;;;;;4993198;28;20206;-50
2022/05/31 03:01:55;;;;;;;3.80;2.30;;;;;;;;;;4992933;28;20198;-50
2022/05/31 03:04:21;;;;;;;2.90;2.70;;;;;;;;;;4992682;28;20449;-50
2022/05/31 03:06:48;;;;;;;3.07;2.60;;;;;;;;;;4992703;28;20465;-50
2022/05/31 03:09:14;;;;;;;3.67;2.77;;;;;;;;;;4992539;28;20200;-49
2022/05/31 03:11:41;;;;;;;3.33;2.43;;;;;;;;;;4992445;28;20348;-50
2022/05/31 03:14:09;;;;;;;3.77;2.50;;;;;;;;;;4992755;28;20449;-50
2022/05/31 03:16:37;;;;;;;2.40;2.20;;;;;;;;;;4992708;28;20544;-50
2022/05/31 03:19:07;;;;;;;2.70;2.50;;;;;;;;;;4992703;28;20257;-49
2022/05/31 03:21:36;;;;;;;2.83;2.63;;;;;;;;;;4992922;28;20218;-50
2022/05/31 03:24:07;;;;;;;4.00;2.53;;;;;;;;;;4992619;28;20434;-51
2022/05/31 03:26:34;;;;;;;2.67;2.47;;;;;;;;;;4992764;28;20226;-50
2022/05/31 03:29:01;;;;;;;2.70;2.37;;;;;;;;;;4992446;28;20517;-50
2022/05/31 03:31:27;;;;;;;5.40;2.50;;;;;;;;;;4992448;28;20485;-49
2022/05/31 03:33:53;;;;;;;4.73;3.07;;;;;;;;;;4992320;28;20544;-50
2022/05/31 03:36:20;;;;;;;4.60;2.70;;;;;;;;;;4992420;28;20473;-50
2022/05/31 03:38:46;;;;;;;3.87;2.70;;;;;;;;;;4992341;28;20213;-50
2022/05/31 03:41:12;;;;;;;2.70;2.50;;;;;;;;;;4992547;28;20808;-50
2022/05/31 03:43:38;;;;;;;4.07;3.07;;;;;;;;;;4992633;28;20198;-50
2022/05/31 03:46:04;;;;;;;2.90;2.60;;;;;;;;;;4992345;28;20567;-50
2022/05/31 03:48:30;;;;;;;2.60;2.40;;;;;;;;;;4992464;28;20202;-51
2022/05/31 03:51:00;;;;;;;3.50;2.70;;;;;;;;;;4992222;28;20222;-51
2022/05/31 03:53:27;;;;;;;2.70;2.50;;;;;;;;;;4992321;28;20445;-51
2022/05/31 03:55:53;;;;;;;2.77;2.57;;;;;;;;;;4992196;28;20621;-50
2022/05/31 03:58:20;;;;;;;3.03;2.77;;;;;;;;;;4992420;28;20460;-50
2022/05/31 04:00:46;;;;;;;2.83;2.50;;;;;;;;;;4992425;28;20445;-51
2022/05/31 04:03:12;;;;;;;2.60;2.40;;;;;;;;;;4992053;28;20439;-51
2022/05/31 04:05:38;;;;;;;2.90;2.60;;;;;;;;;;4992174;28;20445;-51
2022/05/31 04:08:08;;;;;;;3.93;3.00;;;;;;;;;;4992208;28;20756;-51
2022/05/31 04:10:35;;;;;;;2.43;2.23;;;;;;;;;;4992273;28;20230;-50
2022/05/31 04:13:01;;;;;;;2.77;2.40;;;;;;;;;;4992135;28;20570;-50
2022/05/31 04:15:28;;;;;;;3.70;2.57;;;;;;;;;;4992113;28;20445;-51
2022/05/31 04:17:54;;;;;;;3.47;2.30;;;;;;;;;;4991903;28;20198;-50
2022/05/31 04:20:20;;;;;;;2.57;2.30;;;;;;;;;;4992018;28;20542;-50
2022/05/31 04:22:46;;;;;;;3.00;2.80;;;;;;;;;;4995756;28;20202;-51
2022/05/31 04:25:12;;;;;;;2.53;2.37;;;;;;;;;;4995583;28;20585;-48
2022/05/31 04:27:39;;;;;;;2.70;2.50;;;;;;;;;;4995538;28;20237;-49
2022/05/31 04:30:06;;;;;;;2.90;2.43;;;;;;;;;;4995487;28;20217;-49
2022/05/31 04:32:32;;;;;;;2.80;2.40;;;;;;;;;;4995785;28;20194;-50
2022/05/31 04:34:58;;;;;;;3.00;2.73;;;;;;;;;;4995492;28;20233;-50
2022/05/31 04:37:24;;;;;;;3.47;2.70;;;;;;;;;;4995592;28;20194;-50
2022/05/31 04:39:50;;;;;;;3.10;2.50;;;;;;;;;;4995403;28;20215;-50
2022/05/31 04:42:16;;;;;;;4.47;3.07;;;;;;;;;;4995467;28;20186;-49
2022/05/31 04:44:44;;;;;;;3.00;2.70;;;;;;;;;;4995424;28;20483;-50
2022/05/31 04:47:10;;;;;;;3.00;2.70;;;;;;;;;;4995308;28;20597;-49
2022/05/31 04:49:36;;;;;;;5.13;2.70;;;;;;;;;;4995208;28;20764;-50
2022/05/31 04:52:02;;;;;;;9.77;3.63;;;;;;;;;;4995105;28;20313;-50
2022/05/31 04:54:30;;;;;;;4.40;2.80;;;;;;;;;;4995158;28;20673;-50
2022/05/31 04:56:57;;;;;;;4.87;3.00;;;;;;;;;;4995317;28;20202;-50
2022/05/31 04:59:23;;;;;;;3.00;2.70;;;;;;;;;;4995400;28;20282;-50
2022/05/31 05:01:50;;;;;;;4.37;3.07;;;;;;;;;;4995016;28;20598;-50
2022/05/31 05:04:16;;;;;;;3.10;2.80;;;;;;;;;;4995011;28;20567;-50
2022/05/31 05:06:42;;;;;;;4.13;3.07;;;;;;;;;;4994938;28;20214;-50
2022/05/31 05:09:08;;;;;;;3.50;2.93;;;;;;;;;;4994774;28;20213;-50
2022/05/31 05:11:35;;;;;;;3.97;2.70;;;;;;;;;;4994826;28;20242;-49
2022/05/31 05:14:01;;;;;;;3.20;2.60;;;;;;;;;;4994769;28;20206;-50
2022/05/31 05:16:27;;;;;;;5.40;3.33;;;;;;;;;;4994912;28;20567;-51
2022/05/31 05:18:55;;;;;;;3.67;2.77;;;;;;;;;;4994468;28;20660;-49
2022/05/31 05:21:21;;;;;;;3.60;2.97;;;;;;;;;;4994401;28;20672;-52
2022/05/31 05:23:48;;;;;;;3.30;2.60;;;;;;;;;;4994665;28;20210;-51
2022/05/31 05:26:14;;;;;;;4.00;2.80;;;;;;;;;;4994511;28;20779;-48
2022/05/31 05:31:30;;;;;;;3.73;2.67;;;;;;;;;;4994455;28;20229;-49
2022/05/31 05:34:00;;;;;;;4.80;2.57;;;;;;;;;;4993829;28;20206;-48
2022/05/31 05:36:26;;;;;;;2.70;2.50;;;;;;;;;;4994267;28;20201;-49
2022/05/31 05:38:52;;;;;;;5.50;2.40;;;;;;;;;;4994407;28;20249;-49
2022/05/31 05:41:19;;;;;;;2.80;2.50;;;;;;;;;;4994570;28;20202;-50
2022/05/31 05:43:45;;;;;;;3.83;2.73;;;;;;;;;;4994433;28;20257;-50
2022/05/31 05:46:12;;;;;;;3.30;2.60;;;;;;;;;;4994296;28;20194;-51
2022/05/31 05:48:38;;;;;;;4.50;2.10;;;;;;;;;;4994318;28;20206;-52
2022/05/31 05:51:12;;;;;;;4.20;2.30;;;;;;;;;;4994167;28;20225;-51
2022/05/31 05:53:37;;;;;;;6.83;2.80;;;;;;;;;;4993981;28;20206;-50
2022/05/31 05:56:04;;;;;;;4.50;2.57;;;;;;;;;;4993959;28;20198;-49
2022/05/31 05:58:30;;;;;;;4.30;2.50;;;;;;;;;;4994232;28;20214;-50
2022/05/31 06:00:56;;;;;;;5.57;2.77;;;;;;;;;;4993535;28;20309;-49
2022/05/31 06:03:24;;;;;;;3.93;2.20;;;;;;;;;;4993849;28;20206;-50
2022/05/31 06:05:51;;;;;;;3.47;2.40;;;;;;;;;;4993414;28;20608;-50
2022/05/31 06:08:21;;;;;;;5.13;2.83;;;;;;;;;;4993904;28;20229;-49
2022/05/31 06:10:56;;;;;;;3.87;2.40;;;;;;;;;;4993591;28;20245;-50
2022/05/31 06:13:23;;;;;;;4.23;2.43;;;;;;;;;;4993211;28;20198;-50
2022/05/31 06:15:51;;;;;;;4.00;2.40;;;;;;;;;;4993618;28;20566;-50
2022/05/31 06:18:19;;;;;;;8.10;2.50;;;;;;;;;;4993463;28;20620;-50
2022/05/31 06:20:47;;;;;;;4.83;2.60;;;;;;;;;;4993710;28;20617;-49
2022/05/31 06:23:14;;;;;;;5.27;2.40;;;;;;;;;;4993160;28;20244;-50
2022/05/31 06:25:41;;;;;;;3.00;2.30;;;;;;;;;;4993199;28;20218;-50
2022/05/31 06:28:08;;;;;;;3.60;2.27;;;;;;;;;;4993206;28;20244;-50
2022/05/31 06:30:34;;;;;;;3.33;2.50;;;;;;;;;;4993672;28;20198;-51
2022/05/31 06:33:00;;;;;;;3.40;2.30;;;;;;;;;;4993090;28;20649;-50
2022/05/31 06:35:26;;;;;;;4.33;2.43;;;;;;;;;;4993450;28;20212;-51
2022/05/31 06:37:52;;;;;;;4.47;2.40;;;;;;;;;;4993470;28;20276;-52
2022/05/31 06:40:18;;;;;;;2.63;2.20;;;;;;;;;;4993249;28;20293;-50
2022/05/31 06:42:45;;;;;;;4.07;2.17;;;;;;;;;;4993413;28;20202;-51
2022/05/31 06:45:11;;;;;;;4.40;2.00;;;;;;;;;;4992245;28;20198;-50
2022/05/31 06:47:37;;;;;;;2.97;2.33;;;;;;;;;;4993176;28;20792;-51
2022/05/31 06:50:04;;;;;;;4.47;2.50;;;;;;;;;;4993064;28;20198;-50
2022/05/31 06:58:00;;;;;;;3.97;2.00;;;;;;;;;;4993083;28;20196;-50
2022/05/31 07:00:26;;;;;;;4.73;1.90;;;;;;;;;;4993297;28;20194;-50
2022/05/31 07:02:54;;;;;;;10.43;2.13;;;;;;;;;;4992971;28;20197;-51
2022/05/31 07:05:20;;;;;;;2.70;1.53;;;;;;;;;;4992600;28;20208;-51
2022/05/31 07:07:47;;;;;;;3.00;1.80;;;;;;;;;;4992880;28;20241;-50
2022/05/31 07:10:13;;;;;;;3.30;1.70;;;;;;;;;;4992749;28;20249;-51
2022/05/31 07:12:40;;;;;;;4.73;1.90;;;;;;;;;;4992664;28;20253;-51
2022/05/31 07:15:08;;;;;;;3.97;1.80;;;;;;;;;;4992596;28;20220;-49
2022/05/31 07:17:35;;;;;;;3.20;1.77;;;;;;;;;;4992560;28;20202;-49
2022/05/31 07:20:01;;;;;;;2.13;1.50;;;;;;;;;;4992629;28;20202;-50
2022/05/31 07:22:28;;;;;;;3.70;1.80;;;;;;;;;;4992769;28;20194;-50
2022/05/31 07:24:54;;;;;;;4.13;1.80;;;;;;;;;;4992839;28;20734;-51
2022/05/31 07:27:20;;;;;;;4.40;1.50;;;;;;;;;;4992311;28;20202;-51
2022/05/31 07:29:46;;;;;;;3.93;1.60;;;;;;;;;;4992748;28;20624;-51
2022/05/31 07:32:13;;;;;;;4.07;1.40;;;;;;;;;;4992356;28;20261;-55
2022/05/31 07:34:39;;;;;;;5.23;1.30;;;;;;;;;;4992337;28;20665;-52
2022/05/31 07:37:05;;;;;;;6.83;1.57;;;;;;;;;;4992425;28;20204;-54
2022/05/31 07:39:31;;;;;;;3.57;1.70;;;;;;;;;;4992564;28;20665;-52
2022/05/31 07:41:58;;;;;;;2.97;1.47;;;;;;;;;;4992325;28;20194;-53
2022/05/31 07:44:25;;;;;;;2.80;1.37;;;;;;;;;;4992018;28;20692;-54
2022/05/31 07:46:52;;;;;;;1.63;1.30;;;;;;;;;;4992206;28;20209;-53
2022/05/31 07:49:19;;;;;;;3.00;1.70;;;;;;;;;;4992345;28;20202;-52
2022/05/31 07:51:45;;;;;;;2.43;1.27;;;;;;;;;;4992188;28;20245;-53
2022/05/31 07:54:11;;;;;;;2.13;1.30;;;;;;;;;;4992261;28;20209;-53
2022/05/31 07:56:40;;;;;;;1.80;1.20;;;;;;;;;;4994080;28;20198;-53
2022/05/31 07:59:06;;;;;;;2.97;1.70;;;;;;;;;;4996438;28;20250;-53
2022/05/31 08:01:32;;;;;;;2.37;1.40;;;;;;;;;;4996328;28;20221;-53
2022/05/31 08:03:58;;;;;;;3.80;1.67;;;;;;;;;;4996118;28;20696;-53
2022/05/31 08:06:28;;;;;;;1.70;1.20;;;;;;;;;;4995953;28;20198;-52
2022/05/31 08:08:56;;;;;;;1.63;1.03;;;;;;;;;;4995988;28;20286;-53
2022/05/31 08:11:23;;;;;;;4.03;1.30;;;;;;;;;;4995852;28;20233;-51
2022/05/31 08:13:49;;;;;;;2.27;1.30;;;;;;;;;;4996167;28;20208;-54
2022/05/31 08:16:17;;;;;;;2.20;1.30;;;;;;;;;;4995921;28;20200;-53
2022/05/31 08:18:45;;;;;;;1.97;1.40;;;;;;;;;;4994869;28;20195;-52
2022/05/31 08:21:12;;;;;;;2.40;1.30;;;;;;;;;;4995679;28;20191;-52
2022/05/31 08:23:40;;;;;;;1.67;1.30;;;;;;;;;;4995572;28;20294;-54
2022/05/31 08:26:06;;;;;;;3.03;1.30;;;;;;;;;;4995450;28;20572;-53
2022/05/31 08:28:33;;;;;;;2.20;1.17;;;;;;;;;;4995833;28;20330;-52
2022/05/31 08:31:02;;;;;;;2.30;1.23;;;;;;;;;;4996141;28;20227;-53
2022/05/31 08:33:28;;;;;;;1.53;1.10;;;;;;;;;;4995686;28;20213;-53
2022/05/31 08:35:54;;;;;;;4.53;1.20;;;;;;;;;;4995661;28;20208;-52
2022/05/31 08:38:21;;;;;;;1.90;1.27;;;;;;;;;;4995403;28;20217;-52
2022/05/31 08:41:02;;;;;;;1.50;1.10;;;;;;;;;;4995798;28;20200;-53
2022/05/31 08:43:34;;;;;;;2.50;1.13;;;;;;;;;;4995603;28;20261;-53
2022/05/31 08:46:03;;;;;;;1.90;1.30;;;;;;;;;;4995661;28;20244;-51
2022/05/31 08:48:31;;;;;;;2.40;1.20;;;;;;;;;;4995465;28;20229;-53
2022/05/31 08:56:56;;;;;;;1.33;1.20;;;;;;;;;;4995485;28;20673;-53
2022/05/31 08:59:25;;;;;;;1.53;1.20;;;;;;;;;;4994887;28;20288;-52
2022/05/31 09:01:53;;;;;;;1.53;1.00;;;;;;;;;;4995185;28;20641;-53
2022/05/31 09:04:21;;;;;;;2.47;1.10;;;;;;;;;;4994799;28;20190;-53
2022/05/31 09:06:49;;;;;;;3.10;1.10;;;;;;;;;;4994929;28;20217;-52
2022/05/31 09:09:17;;;;;;;2.77;1.10;;;;;;;;;;4994026;28;20194;-51
2022/05/31 09:11:50;;;;;;;2.87;0.93;;;;;;;;;;4994749;28;20236;-52
2022/05/31 09:14:20;;;;;;;2.43;0.90;;;;;;;;;;4994793;28;20304;-53
2022/05/31 09:16:47;;;;;;;1.93;1.27;;;;;;;;;;4994929;28;20206;-52
2022/05/31 09:19:14;;;;;;;1.23;0.90;;;;;;;;;;4994352;28;20292;-51
2022/05/31 09:21:42;;;;;;;1.53;0.90;;;;;;;;;;4994526;28;20607;-52
2022/05/31 09:24:09;;;;;;;1.53;1.00;;;;;;;;;;4994439;28;20190;-52
2022/05/31 09:26:42;;;;;;;2.40;1.10;;;;;;;;;;4994260;28;20218;-52
2022/05/31 09:29:13;;;;;;;1.00;0.90;;;;;;;;;;4993889;28;20873;-53
2022/05/31 09:31:41;;;;;;;2.67;1.03;;;;;;;;;;4994393;28;20688;-53
2022/05/31 09:34:11;;;;;;;3.47;1.07;;;;;;;;;;4994268;28;20639;-53
2022/05/31 09:36:41;;;;;;;2.23;1.20;;;;;;;;;;4994415;28;20688;-53
2022/05/31 09:39:23;;;;;;;1.27;0.97;;;;;;;;;;4994453;28;20201;-53
2022/05/31 09:41:51;;;;;;;2.10;1.00;;;;;;;;;;4994582;28;20638;-53
2022/05/31 09:44:24;;;;;;;2.63;1.17;;;;;;;;;;4994486;28;20204;-52
2022/05/31 09:46:52;;;;;;;2.57;1.00;;;;;;;;;;4994492;28;20209;-52
2022/05/31 09:49:24;;;;;;;2.47;1.20;;;;;;;;;;4994166;28;20221;-52
2022/05/31 09:51:57;;;;;;;0.77;0.77;;;;;;;;;;4994338;28;20312;-52
2022/05/31 09:57:13;;;;;;;1.17;0.93;;;;;;;;;;4994255;28;20248;-52
2022/05/31 09:59:44;;;;;;;2.60;1.20;;;;;;;;;;4994147;28;20708;-52
2022/05/31 10:02:21;;;;;;;1.77;1.30;;;;;;;;;;4993860;28;20417;-53
2022/05/31 10:04:48;;;;;;;1.17;1.00;;;;;;;;;;4993395;28;20269;-53
2022/05/31 10:07:30;;;;;;;2.07;1.40;;;;;;;;;;4994144;28;20278;-53
2022/05/31 10:10:01;;;;;;;2.80;1.30;;;;;;;;;;4994051;28;20194;-54
2022/05/31 10:12:29;;;;;;;1.40;1.20;;;;;;;;;;4993445;28;20684;-53
2022/05/31 10:14:57;;;;;;;3.17;1.50;;;;;;;;;;4993504;28;20198;-55
2022/05/31 10:17:34;;;;;;;1.97;1.10;;;;;;;;;;4993654;28;20285;-54
2022/05/31 10:20:07;;;;;;;4.10;1.23;;;;;;;;;;4993706;28;20233;-54
2022/05/31 10:22:35;;;;;;;3.57;1.43;;;;;;;;;;4993614;28;20194;-53
2022/05/31 10:25:18;;;;;;;3.90;1.07;;;;;;;;;;4993821;28;20214;-54
2022/05/31 10:27:44;;;;;;;2.40;1.00;;;;;;;;;;4993667;28;20293;-54
2022/05/31 10:30:17;;;;;;;2.70;1.20;;;;;;;;;;4993291;28;20228;-52
2022/05/31 10:32:46;;;;;;;1.30;1.00;;;;;;;;;;4993404;28;20229;-53
2022/05/31 10:35:14;;;;;;;1.67;1.20;;;;;;;;;;4993064;28;20202;-53
2022/05/31 10:37:47;;;;;;;2.40;1.13;;;;;;;;;;4993311;28;20680;-54
2022/05/31 10:40:16;;;;;;;1.90;1.20;;;;;;;;;;4993387;28;20225;-54
2022/05/31 10:42:44;;;;;;;2.50;1.17;;;;;;;;;;4993511;28;20198;-54
2022/05/31 10:45:20;;;;;;;1.10;0.70;;;;;;;;;;4993365;28;20205;-53
2022/05/31 10:47:46;;;;;;;2.17;1.10;;;;;;;;;;4993426;28;20200;-53
2022/05/31 10:50:13;;;;;;;2.00;1.07;;;;;;;;;;4993112;28;20551;-52
2022/05/31 10:52:42;;;;;;;1.77;1.10;;;;;;;;;;4993256;28;20280;-52
2022/05/31 10:55:26;;;;;;;2.93;0.93;;;;;;;;;;4993068;28;20211;-53
2022/05/31 10:57:58;;;;;;;2.10;0.90;;;;;;;;;;4993290;28;20210;-53
2022/05/31 11:00:42;;;;;;;2.13;0.90;;;;;;;;;;4992809;28;20206;-52
2022/05/31 11:03:17;;;;;;;2.73;1.07;;;;;;;;;;4992676;28;20636;-52
2022/05/31 11:05:52;;;;;;;1.37;0.93;;;;;;;;;;4992858;28;20279;-52
2022/05/31 11:11:29;;;;;;;1.47;1.10;;;;;;;;;;4992512;28;20577;-53
2022/05/31 11:13:59;;;;;;;1.33;1.00;;;;;;;;;;4992771;28;20225;-53
2022/05/31 11:16:34;;;;;;;2.07;0.93;;;;;;;;;;4992570;28;20199;-54
2022/05/31 11:19:08;;;;;;;2.73;1.10;;;;;;;;;;4992721;28;20582;-53
2022/05/31 11:21:41;;;;;;;1.63;1.10;;;;;;;;;;4992852;28;20660;-53
2022/05/31 11:24:12;;;;;;;2.13;1.00;;;;;;;;;;4992918;28;20210;-54
2022/05/31 11:26:44;;;;;;;1.43;1.00;;;;;;;;;;4992641;28;20226;-54
2022/05/31 11:29:15;;;;;;;4.57;1.30;;;;;;;;;;4991598;28;20313;-53
2022/05/31 11:31:48;;;;;;;2.90;1.40;;;;;;;;;;4991988;28;20621;-53
2022/05/31 11:34:21;;;;;;;1.70;1.03;;;;;;;;;;4991038;28;20198;-54
2022/05/31 11:36:52;;;;;;;1.60;1.00;;;;;;;;;;4992639;28;20661;-53
2022/05/31 11:39:28;;;;;;;1.37;1.00;;;;;;;;;;4992647;28;20284;-53
2022/05/31 11:42:01;;;;;;;1.50;1.07;;;;;;;;;;4992390;28;20209;-54
2022/05/31 11:44:57;;;;;;;1.50;1.20;;;;;;;;;;4992269;28;20224;-53
2022/05/31 11:47:38;;;;;;;1.80;1.27;;;;;;;;;;4913145;29;20715;-54
2022/05/31 11:50:13;;;;;;;1.83;1.00;;;;;;;;;;4981356;28;20296;-54
2022/05/31 11:52:46;;;;;;;1.70;1.10;;;;;;;;;;4992476;28;20276;-53
2022/05/31 11:55:28;;;;;;;1.67;1.00;;;;;;;;;;4992505;28;20619;-53
2022/05/31 11:58:01;;;;;;;2.23;1.40;;;;;;;;;;4992595;28;20209;-53
2022/05/31 12:00:33;;;;;;;1.23;1.13;;;;;;;;;;4992344;28;20276;-52
2022/05/31 12:03:06;;;;;;;3.13;1.30;;;;;;;;;;4992256;28;20197;-53
2022/05/31 12:05:36;;;;;;;3.57;1.50;;;;;;;;;;4992319;28;20211;-52
2022/05/31 12:08:04;;;;;;;3.40;1.57;;;;;;;;;;4992392;28;20256;-53
2022/05/31 12:10:33;;;;;;;2.27;1.30;;;;;;;;;;4992186;28;20294;-53
2022/05/31 12:13:04;;;;;;;2.83;1.57;;;;;;;;;;4992348;28;20223;-54
2022/05/31 12:15:31;;;;;;;3.17;1.30;;;;;;;;;;4992185;28;20209;-53
2022/05/31 12:17:59;;;;;;;2.63;1.47;;;;;;;;;;4992053;28;20301;-53
2022/05/31 12:20:29;;;;;;;2.43;1.80;;;;;;;;;;4992095;28;20208;-53
2022/05/31 12:22:59;;;;;;;1.67;1.27;;;;;;;;;;4992422;28;20200;-53
2022/05/31 12:25:27;;;;;;;2.97;1.50;;;;;;;;;;4991881;28;20706;-51
2022/05/31 12:27:56;;;;;;;2.67;1.57;;;;;;;;;;4991821;28;20233;-51
2022/05/31 12:30:25;;;;;;;1.87;1.47;;;;;;;;;;4990026;28;20634;-52
2022/05/31 12:32:55;;;;;;;1.40;1.30;;;;;;;;;;4991723;28;20237;-51
2022/05/31 12:35:36;;;;;;;1.30;1.20;;;;;;;;;;4991485;28;20568;-51
2022/05/31 12:38:09;;;;;;;2.80;1.50;;;;;;;;;;4991749;28;20259;-51
2022/05/31 12:40:41;;;;;;;2.03;1.40;;;;;;;;;;4991733;28;20208;-52
2022/05/31 12:43:08;;;;;;;3.77;1.60;;;;;;;;;;4994254;28;20200;-51
2022/05/31 12:45:38;;;;;;;1.73;1.20;;;;;;;;;;4995215;28;20201;-52
2022/05/31 12:48:12;;;;;;;2.40;1.50;;;;;;;;;;4995172;28;20205;-52
2022/05/31 12:50:46;;;;;;;1.67;1.30;;;;;;;;;;4995048;28;20548;-51
2022/05/31 12:53:20;;;;;;;4.67;1.80;;;;;;;;;;4995042;28;20638;-51
2022/05/31 12:55:48;;;;;;;2.53;1.23;;;;;;;;;;4995510;28;20209;-53
2022/05/31 12:58:26;;;;;;;2.73;1.47;;;;;;;;;;4995116;28;20229;-53
2022/05/31 13:00:53;;;;;;;3.23;1.30;;;;;;;;;;4995044;28;20205;-51
2022/05/31 13:03:39;;;;;;;3.53;1.50;;;;;;;;;;4994936;28;20268;-53
2022/05/31 13:06:07;;;;;;;2.80;1.23;;;;;;;;;;4994968;28;20204;-52
2022/05/31 13:08:52;;;;;;;6.13;1.80;;;;;;;;;;4994937;28;20202;-52
2022/05/31 13:20:00;;;;;;;1.40;1.30;;;;;;;;;;4994877;28;20576;-53
2022/05/31 13:22:26;;;;;;;1.87;1.30;;;;;;;;;;4994075;28;20247;-53
2022/05/31 13:25:02;;;;;;;5.27;1.80;;;;;;;;;;4994399;28;20235;-52
2022/05/31 13:27:30;;;;;;;2.47;1.50;;;;;;;;;;4994438;28;20252;-52
2022/05/31 13:30:01;;;;;;;2.77;1.43;;;;;;;;;;4994783;28;20205;-52
2022/05/31 13:32:31;;;;;;;2.03;1.40;;;;;;;;;;4994647;28;20702;-53
2022/05/31 13:34:57;;;;;;;1.70;1.50;;;;;;;;;;4994874;28;20201;-52
2022/05/31 13:37:23;;;;;;;3.77;1.63;;;;;;;;;;4994563;28;20209;-53
2022/05/31 13:39:50;;;;;;;2.33;1.57;;;;;;;;;;4994462;28;20209;-52
2022/05/31 13:42:21;;;;;;;2.77;1.43;;;;;;;;;;4994604;28;20659;-53
2022/05/31 13:44:47;;;;;;;3.17;1.50;;;;;;;;;;4994634;28;20239;-52
2022/05/31 13:47:17;;;;;;;4.37;1.60;;;;;;;;;;4994481;28;20288;-52
2022/05/31 13:49:44;;;;;;;2.90;1.60;;;;;;;;;;4985345;28;20205;-53
2022/05/31 13:52:24;;;;;;;3.03;1.53;;;;;;;;;;4974913;28;20237;-53
2022/05/31 13:54:51;;;;;;;2.13;1.40;;;;;;;;;;4972562;28;20201;-53
2022/05/31 13:57:20;;;;;;;2.07;1.27;;;;;;;;;;4974994;28;20205;-52
2022/05/31 13:59:47;;;;;;;1.53;1.40;;;;;;;;;;4974838;28;20228;-53
2022/05/31 14:02:16;;;;;;;3.07;1.50;;;;;;;;;;4974918;28;20220;-52
2022/05/31 14:04:44;;;;;;;1.40;1.30;;;;;;;;;;4974614;28;20691;-53
2022/05/31 14:07:14;;;;;;;5.43;1.70;;;;;;;;;;4974670;28;20676;-53
2022/05/31 14:09:47;;;;;;;2.03;1.33;;;;;;;;;;4974592;28;20216;-54
2022/05/31 14:12:18;;;;;;;3.87;1.90;;;;;;;;;;4974656;28;20287;-53
2022/05/31 14:14:50;;;;;;;2.73;1.57;;;;;;;;;;4974565;28;20224;-53
2022/05/31 14:17:30;;;;;;;3.53;1.67;;;;;;;;;;4974587;28;20292;-54
2022/05/31 14:19:56;;;;;;;2.07;1.70;;;;;;;;;;4973998;28;20208;-54
2022/05/31 14:22:25;;;;;;;2.00;1.70;;;;;;;;;;4974446;28;20259;-54
2022/05/31 14:24:53;;;;;;;3.87;1.80;;;;;;;;;;4974007;28;20233;-54
2022/05/31 14:27:20;;;;;;;2.40;1.50;;;;;;;;;;4974172;28;20209;-54
2022/05/31 14:29:57;;;;;;;2.20;1.70;;;;;;;;;;4974063;28;20201;-52
2022/05/31 14:32:26;;;;;;;2.40;1.70;;;;;;;;;;4974250;28;20255;-54
2022/05/31 14:34:54;;;;;;;1.80;1.60;;;;;;;;;;4974298;28;20650;-53
2022/05/31 14:37:27;;;;;;;2.10;1.60;;;;;;;;;;4974236;28;20203;-53
2022/05/31 14:40:00;;;;;;;1.93;1.50;;;;;;;;;;4974106;28;20193;-53
2022/05/31 14:42:31;;;;;;;2.27;1.70;;;;;;;;;;4974149;28;20231;-53
2022/05/31 14:44:58;;;;;;;3.23;1.73;;;;;;;;;;4974169;28;20199;-53
2022/05/31 14:47:26;;;;;;;3.63;1.43;;;;;;;;;;4973986;28;20211;-53
2022/05/31 14:50:04;;;;;;;2.07;1.43;;;;;;;;;;4972200;28;20259;-53
2022/05/31 14:52:32;;;;;;;3.27;1.90;;;;;;;;;;4972296;28;20337;-55
2022/05/31 14:55:05;;;;;;;3.47;1.50;;;;;;;;;;4973875;28;20730;-52
2022/05/31 14:58:37;;;;;;;2.63;1.50;;;;;;;;;;4973876;28;20205;-53
2022/05/31 15:00:18;;;;;;;4.97;1.67;;;;;;;;;;4973731;28;20204;-52
2022/05/31 15:02:45;;;;;;;3.13;1.63;;;;;;;;;;4973455;28;20215;-53
2022/05/31 15:05:11;;;;;;;2.70;1.60;;;;;;;;;;4973198;28;20205;-54
2022/05/31 15:07:49;;;;;;;2.93;1.60;;;;;;;;;;4973326;28;20661;-53
2022/05/31 15:10:24;;;;;;;1.60;1.40;;;;;;;;;;4966497;28;20565;-55
2022/05/31 15:21:12;;;;;;;2.53;1.33;;;;;;;;;;4971775;28;20206;-56
2022/05/31 15:23:38;;;;;;;4.77;1.87;;;;;;;;;;4972003;28;20205;-52
2022/05/31 15:26:05;;;;;;;3.03;1.73;;;;;;;;;;4973247;28;20249;-53
2022/05/31 15:28:31;;;;;;;2.37;1.50;;;;;;;;;;4973249;28;20659;-53